createdAt,value
2022-07-25T00:02:25.410Z,53.06
2022-07-25T00:04:55.908Z,54.16
2022-07-25T00:07:24.672Z,54.55
2022-07-25T00:09:53.027Z,54.82
2022-07-25T00:12:21.481Z,54.44
2022-07-25T00:14:49.594Z,53.94
2022-07-25T00:17:17.836Z,53.78
2022-07-25T00:19:45.928Z,54.15
2022-07-25T00:22:15.737Z,53.83
2022-07-25T00:24:45.002Z,53.86
2022-07-25T00:27:14.191Z,53.17
2022-07-25T00:29:42.386Z,52.27
2022-07-25T00:32:13.009Z,52.13
2022-07-25T00:34:41.390Z,53.13
2022-07-25T00:37:10.065Z,53.89
2022-07-25T00:39:39.678Z,53.96
2022-07-25T00:42:08.045Z,54.24
2022-07-25T00:44:36.137Z,53.56
2022-07-25T00:47:04.741Z,52.72
2022-07-25T00:49:33.982Z,53.40
2022-07-25T00:52:02.418Z,52.87
2022-07-25T00:54:30.986Z,52.54
2022-07-25T00:57:00.525Z,51.97
2022-07-25T00:59:30.422Z,51.48
2022-07-25T01:01:58.616Z,51.69
2022-07-25T01:04:26.798Z,50.98
2022-07-25T01:06:54.885Z,50.91
2022-07-25T01:09:23.987Z,50.97
2022-07-25T01:11:52.415Z,50.80
2022-07-25T01:14:23.033Z,50.65
2022-07-25T01:16:51.224Z,50.64
2022-07-25T01:19:19.478Z,50.30
2022-07-25T01:21:49.110Z,50.22
2022-07-25T01:24:17.261Z,50.96
2022-07-25T01:26:45.350Z,51.36
2022-07-25T01:29:13.610Z,52.06
2022-07-25T01:31:41.805Z,52.46
2022-07-25T01:34:10.457Z,52.46
2022-07-25T01:36:38.640Z,52.19
2022-07-25T01:39:08.090Z,52.39
2022-07-25T01:41:36.293Z,51.95
2022-07-25T01:44:05.052Z,51.16
2022-07-25T01:46:33.443Z,51.02
2022-07-25T01:49:02.850Z,51.17
2022-07-25T01:51:32.226Z,51.11
2022-07-25T01:54:00.334Z,51.00
2022-07-25T01:56:31.789Z,50.84
2022-07-25T01:59:00.703Z,50.76
2022-07-25T02:01:28.904Z,50.42
2022-07-25T02:03:57.109Z,50.69
2022-07-25T02:06:25.497Z,50.35
2022-07-25T02:08:53.717Z,49.98
2022-07-25T02:11:22.053Z,50.95
2022-07-25T02:13:51.635Z,51.94
2022-07-25T02:16:19.807Z,52.15
2022-07-25T02:18:57.483Z,52.86
2022-07-25T02:21:26.133Z,53.12
2022-07-25T02:23:54.513Z,53.18
2022-07-25T02:26:23.807Z,52.87
2022-07-25T02:28:54.730Z,53.33
2022-07-25T02:31:22.933Z,53.06
2022-07-25T02:33:51.148Z,53.27
2022-07-25T02:36:19.346Z,53.12
2022-07-25T02:38:47.555Z,52.91
2022-07-25T02:41:15.751Z,53.77
2022-07-25T02:43:43.878Z,54.46
2022-07-25T02:46:13.659Z,55.39
2022-07-25T02:48:41.940Z,56.31
2022-07-25T02:51:10.132Z,56.49
2022-07-25T02:53:56.633Z,55.48
2022-07-25T02:56:29.784Z,55.49
2022-07-25T02:58:58.253Z,54.28
2022-07-25T03:01:27.928Z,54.01
2022-07-25T03:03:56.325Z,53.93
2022-07-25T03:06:25.327Z,53.23
2022-07-25T03:08:53.415Z,53.03
2022-07-25T03:11:22.405Z,53.32
2022-07-25T03:13:50.696Z,53.22
2022-07-25T03:16:18.967Z,52.78
2022-07-25T03:18:48.902Z,52.98
2022-07-25T03:21:17.079Z,52.68
2022-07-25T03:23:50.407Z,52.76
2022-07-25T03:26:21.048Z,53.20
2022-07-25T03:28:49.206Z,53.24
2022-07-25T03:31:17.545Z,53.05
2022-07-25T03:33:46.246Z,53.10
2022-07-25T03:36:15.869Z,52.81
2022-07-25T03:38:44.000Z,52.54
2022-07-25T03:41:12.115Z,52.74
2022-07-25T03:43:40.322Z,52.91
2022-07-25T03:46:08.532Z,52.79
2022-07-25T03:48:37.172Z,52.67
2022-07-25T03:51:07.249Z,52.14
2022-07-25T03:53:57.000Z,52.61
2022-07-25T03:56:25.570Z,52.34
2022-07-25T03:58:53.786Z,52.51
2022-07-25T04:01:22.274Z,52.39
2022-07-25T04:03:51.596Z,52.17
2022-07-25T04:06:19.903Z,52.14
2022-07-25T04:08:50.702Z,52.02
2022-07-25T04:11:19.344Z,51.94
2022-07-25T04:13:47.735Z,51.82
2022-07-25T04:16:22.090Z,51.36
2022-07-25T04:18:51.109Z,51.00
2022-07-25T04:21:20.139Z,50.60
2022-07-25T04:23:48.346Z,50.79
2022-07-25T04:26:18.071Z,50.52
2022-07-25T04:28:46.223Z,50.15
2022-07-25T04:31:14.431Z,49.52
2022-07-25T04:33:43.225Z,49.36
2022-07-25T04:36:11.733Z,49.53
2022-07-25T04:38:40.069Z,49.33
2022-07-25T04:41:08.158Z,49.14
2022-07-25T04:43:37.915Z,48.90
2022-07-25T04:46:06.246Z,48.79
2022-07-25T04:48:35.700Z,48.74
2022-07-25T04:51:03.995Z,48.69
2022-07-25T04:53:32.260Z,48.54
2022-07-25T04:56:00.356Z,48.71
2022-07-25T04:58:28.533Z,48.24
2022-07-25T05:00:58.735Z,45.96
2022-07-25T05:03:26.975Z,43.31
2022-07-25T05:05:55.209Z,42.55
2022-07-25T05:08:23.387Z,40.59
2022-07-25T05:10:51.563Z,39.08
2022-07-25T05:13:22.195Z,38.26
2022-07-25T05:15:50.350Z,37.32
2022-07-25T05:18:20.089Z,37.04
2022-07-25T05:20:48.325Z,36.50
2022-07-25T05:23:16.449Z,36.39
2022-07-25T05:25:45.021Z,36.35
2022-07-25T05:28:18.028Z,35.30
2022-07-25T05:30:49.093Z,35.48
2022-07-25T05:33:17.295Z,35.36
2022-07-25T05:35:54.832Z,35.48
2022-07-25T05:38:23.325Z,34.90
2022-07-25T05:40:52.492Z,34.39
2022-07-25T05:43:20.725Z,34.25
2022-07-25T05:45:48.868Z,34.64
2022-07-25T05:48:17.411Z,35.48
2022-07-25T05:50:46.260Z,36.95
2022-07-25T05:53:16.101Z,38.06
2022-07-25T05:55:44.282Z,39.09
2022-07-25T05:58:12.436Z,40.29
2022-07-25T06:00:40.632Z,41.10
2022-07-25T06:03:08.864Z,42.31
2022-07-25T06:05:37.103Z,42.60
2022-07-25T06:08:05.495Z,42.67
2022-07-25T06:10:36.769Z,42.84
2022-07-25T06:13:05.731Z,42.95
2022-07-25T06:15:35.968Z,42.59
2022-07-25T06:18:04.222Z,43.02
2022-07-25T06:20:32.432Z,43.77
2022-07-25T06:23:01.015Z,43.22
2022-07-25T06:25:29.210Z,43.56
2022-07-25T06:27:59.008Z,43.80
2022-07-25T06:30:27.189Z,43.63
2022-07-25T06:32:55.516Z,43.72
2022-07-25T06:35:24.696Z,44.18
2022-07-25T06:37:54.003Z,43.19
2022-07-25T06:40:22.176Z,43.18
2022-07-25T06:42:51.434Z,43.21
2022-07-25T06:45:21.501Z,43.38
2022-07-25T06:47:50.048Z,43.22
2022-07-25T06:50:21.243Z,43.64
2022-07-25T06:52:49.884Z,43.14
2022-07-25T06:55:18.218Z,43.61
2022-07-25T06:57:46.449Z,43.48
2022-07-25T07:00:15.783Z,43.41
2022-07-25T07:02:53.400Z,43.14
2022-07-25T07:05:22.424Z,43.63
2022-07-25T07:07:50.855Z,43.11
2022-07-25T07:10:19.909Z,43.26
2022-07-25T07:12:48.267Z,42.68
2022-07-25T07:15:18.333Z,42.46
2022-07-25T07:17:46.522Z,42.40
2022-07-25T07:20:16.134Z,42.16
2022-07-25T07:22:47.987Z,42.17
2022-07-25T07:25:16.748Z,42.28
2022-07-25T07:27:45.616Z,41.62
2022-07-25T07:30:15.011Z,40.92
2022-07-25T07:32:44.217Z,40.85
2022-07-25T07:35:12.782Z,40.48
2022-07-25T07:37:43.822Z,40.06
2022-07-25T07:40:16.860Z,39.93
2022-07-25T07:42:47.867Z,40.20
2022-07-25T07:45:18.429Z,39.69
2022-07-25T07:47:48.907Z,39.90
2022-07-25T07:50:19.323Z,39.92
2022-07-25T07:52:49.731Z,39.22
2022-07-25T07:55:36.527Z,39.45
2022-07-25T07:58:07.370Z,38.95
2022-07-25T08:00:39.356Z,38.85
2022-07-25T08:03:08.984Z,38.83
2022-07-25T08:05:39.004Z,39.04
2022-07-25T08:08:11.172Z,39.26
2022-07-25T08:10:41.943Z,39.75
2022-07-25T08:13:18.053Z,39.88
2022-07-25T08:15:47.875Z,39.55
2022-07-25T08:18:17.123Z,38.76
2022-07-25T08:20:46.795Z,38.94
2022-07-25T08:23:16.646Z,39.05
2022-07-25T08:25:45.548Z,38.99
2022-07-25T08:28:14.545Z,38.58
2022-07-25T08:30:43.616Z,37.93
2022-07-25T08:33:16.347Z,38.57
2022-07-25T08:35:49.122Z,38.26
2022-07-25T08:38:18.889Z,38.83
2022-07-25T08:40:47.832Z,38.84
2022-07-25T08:43:17.554Z,38.72
2022-07-25T08:45:48.077Z,38.12
2022-07-25T08:48:19.640Z,37.39
2022-07-25T08:50:49.408Z,37.72
2022-07-25T08:53:36.297Z,38.58
2022-07-25T08:56:12.174Z,38.13
2022-07-25T08:58:44.334Z,37.88
2022-07-25T09:01:13.186Z,37.59
2022-07-25T09:03:43.151Z,37.12
2022-07-25T09:06:19.957Z,36.89
2022-07-25T09:08:57.852Z,36.73
2022-07-25T09:11:34.244Z,36.35
2022-07-25T09:14:05.824Z,36.15
2022-07-25T09:16:40.150Z,36.15
2022-07-25T09:19:15.749Z,36.20
2022-07-25T09:21:45.893Z,36.34
2022-07-25T09:24:18.155Z,36.37
2022-07-25T09:26:48.018Z,35.86
2022-07-25T09:29:21.665Z,36.17
2022-07-25T09:31:50.018Z,36.09
2022-07-25T09:34:30.951Z,36.58
2022-07-25T09:36:59.547Z,36.75
2022-07-25T09:39:46.085Z,35.95
2022-07-25T09:42:26.547Z,35.22
2022-07-25T09:45:06.560Z,35.25
2022-07-25T09:47:36.802Z,35.31
2022-07-25T09:50:06.050Z,35.33
2022-07-25T09:52:34.582Z,35.22
2022-07-25T09:55:06.555Z,35.35
2022-07-25T09:57:34.926Z,35.14
2022-07-25T10:00:03.988Z,35.07
2022-07-25T10:02:45.593Z,35.27
2022-07-25T10:05:16.869Z,35.00
2022-07-25T10:07:48.626Z,34.85
2022-07-25T10:10:29.130Z,33.95
2022-07-25T10:13:10.166Z,34.07
2022-07-25T10:15:46.726Z,34.33
2022-07-25T10:18:18.260Z,34.42
2022-07-25T10:20:48.290Z,34.07
2022-07-25T10:23:25.336Z,33.56
2022-07-25T10:26:09.692Z,33.80
2022-07-25T10:28:40.489Z,33.29
2022-07-25T10:31:36.330Z,33.35
2022-07-25T10:34:06.621Z,33.23
2022-07-25T10:36:46.148Z,33.46
2022-07-25T10:39:15.947Z,33.21
2022-07-25T10:41:51.778Z,33.53
2022-07-25T10:44:20.390Z,33.34
2022-07-25T10:46:50.387Z,32.86
2022-07-25T10:49:29.104Z,33.14
2022-07-25T10:52:01.046Z,33.28
2022-07-25T10:54:35.959Z,33.58
2022-07-25T10:57:07.321Z,33.17
2022-07-25T10:59:40.068Z,33.04
2022-07-25T11:02:16.385Z,32.62
2022-07-25T11:04:45.389Z,32.05
2022-07-25T11:07:15.803Z,31.62
2022-07-25T11:09:45.140Z,31.41
2022-07-25T11:12:18.049Z,31.36
2022-07-25T11:14:47.935Z,31.26
2022-07-25T11:17:24.024Z,30.83
2022-07-25T11:19:57.489Z,31.03
2022-07-25T11:22:26.620Z,30.27
2022-07-25T11:24:58.062Z,30.53
2022-07-25T11:27:29.290Z,30.68
2022-07-25T11:30:08.033Z,31.24
2022-07-25T11:32:40.874Z,31.06
2022-07-25T11:35:10.111Z,31.12
2022-07-25T11:37:41.375Z,31.41
2022-07-25T11:40:11.032Z,31.21
2022-07-25T11:42:45.594Z,31.07
2022-07-25T11:45:19.098Z,30.69
2022-07-25T11:47:48.980Z,31.09
2022-07-25T11:50:17.430Z,30.72
2022-07-25T11:52:46.527Z,31.05
2022-07-25T11:55:18.111Z,31.23
2022-07-25T11:57:48.901Z,31.19
2022-07-25T12:00:20.916Z,31.41
2022-07-25T12:02:58.183Z,31.65
2022-07-25T12:05:33.786Z,31.60
2022-07-25T12:08:10.658Z,31.56
2022-07-25T12:10:39.521Z,32.26
2022-07-25T12:13:10.702Z,31.67
2022-07-25T12:15:40.965Z,31.73
2022-07-25T12:18:10.740Z,31.79
2022-07-25T12:20:41.238Z,31.71
2022-07-25T12:23:11.247Z,31.41
2022-07-25T12:25:40.622Z,31.48
2022-07-25T12:28:10.905Z,31.83
2022-07-25T12:30:40.455Z,31.34
2022-07-25T12:33:09.155Z,31.39
2022-07-25T12:35:38.221Z,31.52
2022-07-25T12:38:07.071Z,31.46
2022-07-25T12:40:35.562Z,31.60
2022-07-25T12:43:04.815Z,31.18
2022-07-25T12:45:35.030Z,31.22
2022-07-25T12:48:03.267Z,30.99
2022-07-25T12:50:31.629Z,30.96
2022-07-25T12:52:59.998Z,30.68
2022-07-25T12:55:28.373Z,31.11
2022-07-25T12:57:56.671Z,31.16
2022-07-25T13:00:25.609Z,31.28
2022-07-25T13:02:57.038Z,31.17
2022-07-25T13:05:26.714Z,31.58
2022-07-25T13:07:54.920Z,31.31
2022-07-25T13:10:23.201Z,31.62
2022-07-25T13:12:51.855Z,31.43
2022-07-25T13:15:22.466Z,31.33
2022-07-25T13:17:51.387Z,31.91
2022-07-25T13:20:21.436Z,31.66
2022-07-25T13:22:49.913Z,31.38
2022-07-25T13:25:18.466Z,31.54
2022-07-25T13:27:48.576Z,31.36
2022-07-25T13:30:17.177Z,31.11
2022-07-25T13:32:45.465Z,31.13
2022-07-25T13:35:16.469Z,30.95
2022-07-25T13:37:49.950Z,30.60
2022-07-25T13:40:18.332Z,31.01
2022-07-25T13:42:46.502Z,30.97
2022-07-25T13:45:15.900Z,30.79
2022-07-25T13:47:44.233Z,30.53
2022-07-25T13:50:14.926Z,30.65
2022-07-25T13:52:43.100Z,30.58
2022-07-25T13:55:12.963Z,30.33
2022-07-25T13:57:41.153Z,30.00
2022-07-25T14:00:10.703Z,30.24
2022-07-25T14:02:38.930Z,30.69
2022-07-25T14:05:07.547Z,30.15
2022-07-25T14:07:36.153Z,29.84
2022-07-25T14:10:06.051Z,29.72
2022-07-25T14:12:36.627Z,29.10
2022-07-25T14:15:05.771Z,29.00
2022-07-25T14:17:35.318Z,28.94
2022-07-25T14:20:03.784Z,29.25
2022-07-25T14:22:31.973Z,29.17
2022-07-25T14:25:00.201Z,29.47
2022-07-25T14:27:28.771Z,29.10
2022-07-25T14:29:58.352Z,29.26
2022-07-25T14:32:27.015Z,28.80
2022-07-25T14:34:55.181Z,28.66
2022-07-25T14:37:23.607Z,28.49
2022-07-25T14:39:53.535Z,28.29
2022-07-25T14:42:21.864Z,28.43
2022-07-25T14:44:50.226Z,28.38
2022-07-25T14:47:22.234Z,28.50
2022-07-25T14:49:51.308Z,28.53
2022-07-25T14:52:19.784Z,28.79
2022-07-25T14:54:48.031Z,28.79
2022-07-25T14:57:16.535Z,28.66
2022-07-25T14:59:44.711Z,28.75
2022-07-25T15:02:12.995Z,29.13
2022-07-25T15:04:43.863Z,28.78
2022-07-25T15:07:12.206Z,28.66
2022-07-25T15:09:40.682Z,28.82
2022-07-25T15:12:13.419Z,30.24
2022-07-25T15:14:44.788Z,30.22
2022-07-25T15:17:13.682Z,30.36
2022-07-25T15:19:49.565Z,30.48
2022-07-25T15:22:17.951Z,30.42
2022-07-25T15:25:21.472Z,30.38
2022-07-25T15:27:34.941Z,30.73
2022-07-25T15:30:03.149Z,30.42
2022-07-25T15:32:31.482Z,30.45
2022-07-25T15:35:01.163Z,30.27
2022-07-25T15:37:30.014Z,29.85
2022-07-25T15:39:58.347Z,30.08
2022-07-25T15:42:29.191Z,30.07
2022-07-25T15:45:34.080Z,30.15
2022-07-25T15:47:56.642Z,30.79
2022-07-25T15:50:26.304Z,30.84
2022-07-25T15:52:54.529Z,31.09
2022-07-25T15:55:22.942Z,31.40
2022-07-25T15:57:52.888Z,31.46
2022-07-25T16:00:24.834Z,31.15
2022-07-25T16:02:57.349Z,31.13
2022-07-25T16:05:27.673Z,31.47
2022-07-25T16:07:56.133Z,31.76
2022-07-25T16:10:24.469Z,31.73
2022-07-25T16:12:52.667Z,31.65
2022-07-25T16:15:21.390Z,31.89
2022-07-25T16:17:53.077Z,31.78
2022-07-25T16:20:21.750Z,31.99
2022-07-25T16:22:56.096Z,32.20
2022-07-25T16:25:25.061Z,32.14
2022-07-25T16:27:53.746Z,31.98
2022-07-25T16:30:22.479Z,32.29
2022-07-25T16:32:50.873Z,32.74
2022-07-25T16:35:19.483Z,32.85
2022-07-25T16:37:48.328Z,32.90
2022-07-25T16:40:18.115Z,32.78
2022-07-25T16:42:49.156Z,33.17
2022-07-25T16:45:21.086Z,33.32
2022-07-25T16:47:56.984Z,33.13
2022-07-25T16:50:28.455Z,33.39
2022-07-25T16:52:56.797Z,33.81
2022-07-25T16:55:26.460Z,33.95
2022-07-25T16:57:55.105Z,34.06
2022-07-25T17:00:23.350Z,34.56
2022-07-25T17:02:51.722Z,34.31
2022-07-25T17:05:22.677Z,34.17
2022-07-25T17:07:59.256Z,34.23
2022-07-25T17:10:30.087Z,34.53
2022-07-25T17:13:00.453Z,34.73
2022-07-25T17:15:28.660Z,35.17
2022-07-25T17:17:57.022Z,34.81
2022-07-25T17:20:25.951Z,35.20
2022-07-25T17:22:54.463Z,35.10
2022-07-25T17:25:22.878Z,35.07
2022-07-25T17:27:52.414Z,35.02
2022-07-25T17:30:20.669Z,35.01
2022-07-25T17:32:48.960Z,35.06
2022-07-25T17:35:17.166Z,35.17
2022-07-25T17:37:45.485Z,35.12
2022-07-25T17:40:14.192Z,35.56
2022-07-25T17:42:45.414Z,35.53
2022-07-25T17:45:16.571Z,35.72
2022-07-25T17:47:47.101Z,35.55
2022-07-25T17:50:17.018Z,35.83
2022-07-25T17:52:45.496Z,35.92
2022-07-25T17:55:15.099Z,35.85
2022-07-25T17:57:45.621Z,35.92
2022-07-25T18:00:16.398Z,36.30
2022-07-25T18:02:44.894Z,36.34
2022-07-25T18:05:13.141Z,36.45
2022-07-25T18:07:45.310Z,36.57
2022-07-25T18:10:14.062Z,36.56
2022-07-25T18:12:42.501Z,36.71
2022-07-25T18:15:12.859Z,36.95
2022-07-25T18:17:43.997Z,36.73
2022-07-25T18:20:13.857Z,36.85
2022-07-25T18:22:42.494Z,36.85
2022-07-25T18:25:12.644Z,37.15
2022-07-25T18:27:42.405Z,37.21
2022-07-25T18:30:11.745Z,37.07
2022-07-25T18:32:40.480Z,37.32
2022-07-25T18:35:12.156Z,37.45
2022-07-25T18:37:40.506Z,37.34
2022-07-25T18:40:09.944Z,37.50
2022-07-25T18:42:38.882Z,37.81
2022-07-25T18:45:08.111Z,37.41
2022-07-25T18:47:36.370Z,37.74
2022-07-25T18:50:06.082Z,37.92
2022-07-25T18:52:37.592Z,37.90
2022-07-25T18:55:09.489Z,37.92
2022-07-25T18:57:40.602Z,38.04
2022-07-25T19:00:20.064Z,38.48
2022-07-25T19:03:02.966Z,38.63
2022-07-25T19:05:31.930Z,38.70
2022-07-25T19:08:03.541Z,38.68
2022-07-25T19:10:31.984Z,39.20
2022-07-25T19:13:01.500Z,38.95
2022-07-25T19:15:35.645Z,39.33
2022-07-25T19:18:05.785Z,39.59
2022-07-25T19:20:34.276Z,40.13
2022-07-25T19:23:04.088Z,40.00
2022-07-25T19:25:34.153Z,39.92
2022-07-25T19:28:02.796Z,39.68
2022-07-25T19:30:31.658Z,39.71
2022-07-25T19:33:00.227Z,39.82
2022-07-25T19:35:28.657Z,40.30
2022-07-25T19:37:56.952Z,40.14
2022-07-25T19:40:27.771Z,40.32
2022-07-25T19:42:56.202Z,40.12
2022-07-25T19:45:27.368Z,40.80
2022-07-25T19:47:55.872Z,40.82
2022-07-25T19:50:24.573Z,40.89
2022-07-25T19:52:53.139Z,40.85
2022-07-25T19:55:22.976Z,41.25
2022-07-25T19:57:53.138Z,41.41
2022-07-25T20:00:29.783Z,41.42
2022-07-25T20:02:58.254Z,41.94
2022-07-25T20:05:28.882Z,41.98
2022-07-25T20:07:57.410Z,41.83
2022-07-25T20:10:26.941Z,42.21
2022-07-25T20:13:01.097Z,42.46
2022-07-25T20:15:30.053Z,42.59
2022-07-25T20:17:58.597Z,42.56
2022-07-25T20:20:28.049Z,42.56
2022-07-25T20:22:56.572Z,42.78
2022-07-25T20:25:25.373Z,42.74
2022-07-25T20:27:59.126Z,42.74
2022-07-25T20:30:32.909Z,42.83
2022-07-25T20:33:05.375Z,42.90
2022-07-25T20:35:38.180Z,43.28
2022-07-25T20:38:09.845Z,43.33
2022-07-25T20:40:46.318Z,43.46
2022-07-25T20:43:21.074Z,43.11
2022-07-25T20:45:50.363Z,43.31
2022-07-25T20:48:18.929Z,43.33
2022-07-25T20:50:47.306Z,43.36
2022-07-25T20:53:15.588Z,43.38
2022-07-25T20:55:43.981Z,43.63
2022-07-25T20:58:12.129Z,43.86
2022-07-25T21:00:42.124Z,44.30
2022-07-25T21:03:10.441Z,44.68
2022-07-25T21:05:39.670Z,44.75
2022-07-25T21:08:08.331Z,44.93
2022-07-25T21:10:36.535Z,45.03
2022-07-25T21:13:04.976Z,45.35
2022-07-25T21:15:33.388Z,45.44
2022-07-25T21:18:02.995Z,45.87
2022-07-25T21:20:31.393Z,46.00
2022-07-25T21:22:59.827Z,46.09
2022-07-25T21:25:28.190Z,46.24
2022-07-25T21:27:56.478Z,46.08
2022-07-25T21:30:24.653Z,46.12
2022-07-25T21:32:52.827Z,46.21
2022-07-25T21:35:22.348Z,46.31
2022-07-25T21:37:50.542Z,46.55
2022-07-25T21:40:18.803Z,46.88
2022-07-25T21:42:47.000Z,46.62
2022-07-25T21:45:15.221Z,46.34
2022-07-25T21:47:43.345Z,46.04
2022-07-25T21:50:29.308Z,45.88
2022-07-25T21:52:58.867Z,46.00
2022-07-25T21:55:27.269Z,45.57
2022-07-25T21:57:55.663Z,45.93
2022-07-25T22:00:24.021Z,45.77
2022-07-25T22:02:52.177Z,45.45
2022-07-25T22:05:20.841Z,45.02
2022-07-25T22:07:50.532Z,44.91
2022-07-25T22:10:21.363Z,44.46
2022-07-25T22:12:49.762Z,44.56
2022-07-25T22:15:17.912Z,45.14
2022-07-25T22:17:49.534Z,45.16
2022-07-25T22:20:18.830Z,45.45
2022-07-25T22:22:47.361Z,45.54
2022-07-25T22:25:16.799Z,45.92
2022-07-25T22:27:46.543Z,45.92
2022-07-25T22:30:19.183Z,45.82
2022-07-25T22:32:48.695Z,46.09
2022-07-25T22:35:16.927Z,45.92
2022-07-25T22:37:46.314Z,45.79
2022-07-25T22:40:14.807Z,45.17
2022-07-25T22:42:43.956Z,45.51
2022-07-25T22:45:13.973Z,45.37
2022-07-25T22:47:42.080Z,45.54
2022-07-25T22:50:11.237Z,46.27
2022-07-25T22:52:39.485Z,46.35
2022-07-25T22:55:08.516Z,46.52
2022-07-25T22:57:37.791Z,46.76
2022-07-25T23:00:09.345Z,47.02
2022-07-25T23:02:39.093Z,47.97
2022-07-25T23:05:08.385Z,48.91
2022-07-25T23:07:36.623Z,49.25
2022-07-25T23:10:06.463Z,49.64
2022-07-25T23:12:34.586Z,49.77
2022-07-25T23:15:02.899Z,49.66
2022-07-25T23:17:31.042Z,49.23
2022-07-25T23:20:00.609Z,49.51
2022-07-25T23:22:30.249Z,49.46
2022-07-25T23:24:58.660Z,49.68
2022-07-25T23:27:27.665Z,49.78
2022-07-25T23:29:55.735Z,49.92
2022-07-25T23:32:24.016Z,49.58
2022-07-25T23:34:52.131Z,49.36
2022-07-25T23:37:21.654Z,48.92
2022-07-25T23:39:50.741Z,48.60
2022-07-25T23:42:18.923Z,48.34
2022-07-25T23:44:47.277Z,48.44
2022-07-25T23:47:15.607Z,48.69
2022-07-25T23:49:46.191Z,48.93
2022-07-25T23:52:14.388Z,48.69
2022-07-25T23:54:44.020Z,48.62
2022-07-25T23:57:12.768Z,48.44
2022-07-25T23:59:43.040Z,48.69
